• Join FlightAware (Why Join?)
  • Login
  • US Flag 
03:29AM EST


 

Airport Tracker/Info


-or-


 

Live Flight TrackerFlight Track Log ✈ DAL5814 ✈ 10-Dec-2013 ✈ KJAX - KLGA

Flight Track Log - Related Links

Times and Time Zones

All times are in EST time to prevent confusion due to time zone crossing. See the DAL5814 flight status page for this flight to view local times or setup timezone preferences in your user account.

Time Position Orientation Groundspeed Altitude Reporting Facility
EST Latitude Longitude Course Direction KTS MPH feet Rate Location/Type
07:08AM 30.4928 -81.7089 North 149 171 700  Level Jacksonville Center
07:09AM 30.5181 -81.7350 318° Northwest 186 214 2,000 1,860 Climbing Jacksonville Center
07:10AM 30.5847 -81.7078 19° North 275 316 4,100 2,100 Climbing Jacksonville Center
07:11AM 30.9484 -81.3880 10° North  Level Estimated
07:11AM 30.6158 -81.6906 25° Northeast 278 320 5,200  Level Jacksonville Center
07:12AM 31.0618 -81.3127 13° North  Level Estimated
07:12AM 30.6906 -81.6461 27° Northeast 283 326 7,900  Level Jacksonville Center
07:13AM 31.1753 -81.2371 North  Level Estimated
07:13AM 30.7717 -81.6039 24° Northeast 302 348 10,400  Level Jacksonville Center
07:14AM 30.8567 -81.5519 28° Northeast 320 368 11,800 1,560 Climbing Jacksonville Center
07:15AM 30.9561 -81.4947 26° Northeast 360 414 13,600 1,920 Climbing Jacksonville Center
07:16AM 31.0558 -81.4400 25° Northeast 384 442 15,700 1,980 Climbing Jacksonville Center
07:17AM 31.1808 -81.4161 North 398 458 17,600 1,740 Climbing Jacksonville Center
07:18AM 31.2953 -81.3925 10° North 413 475 19,200 1,500 Climbing Jacksonville Center
07:19AM 31.4119 -81.3661 11° North 421 484 20,700 1,440 Climbing Jacksonville Center
07:20AM 31.5222 -81.3425 10° North 432 497 22,100 1,380 Climbing Jacksonville Center
07:21AM 31.6556 -81.3111 11° North 437 503 23,500 1,200 Climbing Jacksonville Center
07:22AM 31.7722 -81.2869 10° North 451 519 24,600 1,080 Climbing Jacksonville Center
07:23AM 31.9033 -81.2578 11° North 470 541 25,700 1,020 Climbing Jacksonville Center
07:24AM 32.0367 -81.2261 11° North 476 548 26,700 1,020 Climbing Jacksonville Center
07:25AM 32.1694 -81.1794 17° North 487 560 27,800 960 Climbing Jacksonville Center
07:26AM 32.2917 -81.0936 31° Northeast 498 573 28,700 840 Climbing Jacksonville Center
07:27AM 32.4258 -80.9975 31° Northeast 514 592 29,500 840 Climbing Jacksonville Center
07:28AM 32.5497 -80.9086 31° Northeast 524 603 30,400 900 Climbing Jacksonville Center
07:29AM 32.6756 -80.8169 32° Northeast 524 603 31,300 840 Climbing Jacksonville Center
07:30AM 32.7972 -80.7278 32° Northeast 519 597 32,100 720 Climbing Jacksonville Center
07:31AM 32.9208 -80.6381 31° Northeast 519 597 32,800 720 Climbing Jacksonville Center
07:32AM 33.0425 -80.5508 31° Northeast 513 590 33,600 600 Climbing Jacksonville Center
07:33AM 33.1661 -80.4633 31° Northeast 513 590 34,000 540 Climbing Jacksonville Center
07:34AM 33.2917 -80.3703 32° Northeast 513 590 34,700 480 Climbing Jacksonville Center
07:35AM 33.4108 -80.2775 33° Northeast 508 585 35,000 120 Climbing Jacksonville Center
07:36AM 33.5381 -80.1839 32° Northeast 514 592 35,000  Level Jacksonville Center
07:37AM 33.6614 -80.0903 32° Northeast 514 592 35,000  Level Jacksonville Center
07:38AM 33.7886 -79.9964 32° Northeast 519 597 35,000  Level Jacksonville Center
07:39AM 33.9136 -79.8997 33° Northeast 524 603 35,000  Level Jacksonville Center
07:40AM 34.0406 -79.8050 32° Northeast 529 609 35,000  Level Jacksonville Center
07:41AM 34.1656 -79.7103 32° Northeast 535 616 35,000  Level Jacksonville Center
07:43AM 34.4700 -79.5344 25° Northeast 523 602 35,000  Level Washington Center
07:44AM 34.6036 -79.4600 25° Northeast 518 596 35,000  Level Washington Center
07:45AM 34.7375 -79.3906 23° Northeast 518 596 35,000  Level Washington Center
07:46AM 34.8731 -79.3208 23° Northeast 518 596 35,000  Level Washington Center
07:47AM 35.0067 -79.2536 22° Northeast 518 596 35,000  Level Washington Center
07:48AM 35.1425 -79.1811 24° Northeast 523 602 35,000  Level Washington Center
07:49AM 35.2781 -79.1081 24° Northeast 523 602 35,000  Level Washington Center
07:50AM 35.4136 -79.0378 23° Northeast 523 602 35,000  Level Washington Center
07:51AM 35.5517 -78.9594 25° Northeast 528 608 35,000  Level Washington Center
07:52AM 35.6872 -78.8883 23° Northeast 528 608 35,000  Level Washington Center
07:53AM 35.8100 -78.8192 25° Northeast 528 608 35,000  Level Washington Center
07:54AM 35.9397 -78.7269 30° Northeast 528 608 35,000  Level Washington Center
07:55AM 36.0678 -78.6192 34° Northeast 543 625 35,000  Level Washington Center
07:56AM 36.1936 -78.5056 36° Northeast 554 638 35,000  Level Washington Center
07:57AM 36.3194 -78.3942 35° Northeast 554 638 35,000  Level Washington Center
07:58AM 36.4431 -78.2825 36° Northeast 554 638 35,000  Level Washington Center
07:59AM 36.5706 -78.1731 35° Northeast 554 638 35,000  Level Washington Center
08:00AM 36.6942 -78.0553 37° Northeast 554 638 35,000  Level Washington Center
08:01AM 36.8194 -77.9400 36° Northeast 554 638 35,000  Level Washington Center
08:02AM 36.9367 -77.8058 42° Northeast 559 643 35,000  Level Washington Center
08:03AM 37.0558 -77.6817 40° Northeast 559 643 35,000  Level Washington Center
08:04AM 37.1789 -77.5547 39° Northeast 559 643 35,000  Level Washington Center
08:05AM 37.3019 -77.4300 39° Northeast 559 643 35,000  Level Washington Center
08:06AM 37.4353 -77.2944 39° Northeast 559 643 35,000  Level Washington Center
08:07AM 37.5622 -77.1664 39° Northeast 559 643 35,000  Level Washington Center
08:08AM 37.6828 -77.0378 40° Northeast 564 649 35,000  Level Washington Center
08:09AM 37.8031 -76.9086 40° Northeast 564 649 35,000  Level Washington Center
08:10AM 37.9253 -76.7817 39° Northeast 564 649 35,000  Level Washington Center
08:11AM 38.0456 -76.6544 40° Northeast 558 642 35,000  Level Washington Center
08:12AM 38.1675 -76.5267 39° Northeast 558 642 35,000  Level Washington Center
08:13AM 38.2914 -76.3986 39° Northeast 563 648 35,000  Level Washington Center
08:14AM 38.4172 -76.2806 36° Northeast 563 648 35,000 -180 Level Washington Center
08:15AM 38.5431 -76.1625 36° Northeast 563 648 34,700 -1,080 Descending Washington Center
08:16AM 38.6622 -76.0569 35° Northeast 573 659 32,900 -2,460 Descending Washington Center
08:17AM 38.7897 -75.9325 37° Northeast 573 659 29,800 -2,940 Descending Washington Center
08:18AM 38.9172 -75.8158 35° Northeast 573 659 27,000 -1,440 Descending Washington Center
08:19AM 39.0403 -75.7011 36° Northeast 562 647 27,000 -180 Level Washington Center
08:20AM 39.1592 -75.5889 36° Northeast 548 631 26,700 -900 Descending Washington Center
08:21AM 39.2717 -75.4817 36° Northeast 525 604 25,300 -1,620 Descending Washington Center
08:22AM 39.3800 -75.3847 35° Northeast 491 565 23,500 -1,800 Descending Washington Center
08:23AM 39.4839 -75.2931 34° Northeast 464 534 21,700 -1,740 Descending Washington Center
08:24AM 39.5836 -75.2011 35° Northeast 447 514 20,000 -1,740 Descending Washington Center
08:25AM 39.6875 -75.1061 35° Northeast 429 494 18,200 -1,680 Descending Washington Center
08:26AM 39.7747 -75.0300 34° Northeast 419 482 16,700 -1,680 Descending Washington Center
08:27AM 39.8806 -74.9400 33° Northeast 419 482 14,900 -1,440 Descending Washington Center
08:28AM 39.9633 -74.8364 44° Northeast 414 476 13,900 -540 Descending Washington Center
08:29AM 40.0422 -74.7947 22° Northeast 322 371 13,900  Level Washington Center
08:30AM 40.0717 -74.8594 301° West 196 226 13,900  Level Washington Center
08:31AM 40.0553 -74.9167 250° West 118 136 14,000  Climbing Washington Center
08:32AM 40.0181 -74.9603 222° Southwest 133 153 13,900 -60 Descending Washington Center
08:33AM 39.9786 -74.9986 217° Southwest 161 185 13,900  Level Washington Center
08:34AM 39.9286 -74.9961 178° South 170 196 13,900  Level Washington Center
08:35AM 39.8908 -74.9261 125° Southeast 204 235 14,000 -60 Climbing Washington Center
08:36AM 39.9550 -74.8392 46° Northeast 237 273 13,800 -480 Descending Washington Center
08:37AM 40.0297 -74.8083 18° North 254 292 13,100 -480 Descending Washington Center
08:38AM 40.0508 -74.8706 294° West 135 155 12,900 -60 Descending Washington Center
08:39AM 40.0242 -74.9222 236° Southwest 100 115 13,000  Climbing Washington Center
08:40AM 39.9972 -74.9739 236° Southwest 133 153 12,900  Descending Washington Center
08:41AM 39.9517 -74.9989 203° Southwest 168 193 13,000  Climbing Washington Center
08:42AM 39.9117 -74.9289 127° Southeast 165 190 13,000 -60 Level Washington Center
08:44AM 40.0422 -74.8056 36° Northeast 210 242 12,900  Descending Washington Center
08:45AM 40.0572 -74.8678 288° West 121 139 13,000  Climbing Washington Center
08:46AM 40.0325 -74.9194 238° Southwest 110 127 13,000 -60 Level Washington Center
08:47AM 39.9972 -74.9658 225° Southwest 140 161 12,900 -60 Descending Washington Center
08:48AM 39.9622 -75.0094 224° Southwest 160 184 12,900  Level Washington Center
08:49AM 39.9058 -74.9911 166° South 170 196 13,000  Climbing Washington Center
08:50AM 39.9239 -74.8908 77° East 213 245 12,900 -60 Descending Washington Center
08:51AM 39.9900 -74.8089 44° Northeast 250 288 12,900  Level Washington Center
08:52AM 40.0528 -74.8244 349° North 191 220 12,900  Level Washington Center
08:53AM 40.0594 -74.8867 278° West 129 148 12,900 60 Level Washington Center
08:54AM 40.0386 -74.9192 230° Southwest 142 163 13,000 60 Climbing New York Center
08:55AM 39.9939 -74.9436 203° Southwest 154 177 13,000  Level New York Center
08:56AM 39.9533 -74.8517 120° Southeast 201 231 13,000  Level New York Center
08:57AM 39.9122 -74.7167 112° Southeast 320 368 13,000 540 Level New York Center
08:58AM 39.8875 -74.5772 103° East 363 418 14,100 1,440 Climbing New York Center
08:59AM 39.9089 -74.4322 79° East 399 459 15,900 1,500 Climbing New York Center
09:00AM 39.9264 -74.2681 82° East 440 506 17,100 1,500 Climbing New York Center
09:01AM 39.9461 -74.0850 82° East 473 544 19,000 1,620 Climbing New York Center
09:02AM 39.9656 -73.9072 82° East 478 550 20,400 960 Climbing New York Center
09:03AM 40.0606 -73.7894 43° Northeast 443 510 21,000 300 Climbing New York Center
09:04AM 40.1861 -73.7650 North 410 472 21,000  Level New York Center
09:05AM 40.3069 -73.7647 360° North 401 461 21,000  Level New York Center
09:06AM 40.4256 -73.7700 358° North 423 487 21,000  Level New York Center
09:07AM 40.5486 -73.7728 359° North 428 493 21,000  Level New York Center
09:08AM 40.6708 -73.7097 21° North 443 510 21,000  Level New York Center
09:10AM 40.8650 -73.4353 47° Northeast 507 583 21,000  Level Boston Center
09:11AM 40.9636 -73.2903 48° Northeast 506 582 21,000  Level Boston Center
09:12AM 41.0589 -73.1500 48° Northeast 511 588 21,000  Level Boston Center
09:13AM 41.1517 -73.0094 49° Northeast 509 586 21,000  Level Boston Center
09:14AM 41.2400 -72.8639 51° Northeast 511 588 21,000  Level Boston Center
09:15AM 41.3022 -72.6903 64° Northeast 518 596 21,000  Level Boston Center
09:16AM 41.3611 -72.5147 66° East 517 595 21,000  Level Boston Center
09:17AM 41.4217 -72.3381 65° Northeast 521 600 21,000  Level Boston Center
09:18AM 41.4808 -72.1592 66° East 523 602 21,000  Level Boston Center
09:19AM 41.5494 -71.9553 66° East 525 604 21,000 -60 Level Boston Center
09:20AM 41.6081 -71.7792 66° East 522 601 20,900 -1,380 Descending Boston Center
09:21AM 41.6711 -71.5925 66° East 527 606 18,200 -2,580 Descending Boston Center
09:22AM 41.7269 -71.4300 65° Northeast 491 565 15,600 -2,640 Descending Boston Center
09:23AM 41.8042 -71.2711 57° Northeast 475 547 12,900 -2,340 Descending Boston Center
09:24AM 41.8692 -71.1386 57° Northeast 428 493 11,000 -1,260 Descending Boston Center
09:24AM 41.9000 -71.0667 60° Northeast 386 444 11,000  Level KA90
09:26AM 41.9833 -70.9167 53° Northeast 400 460 11,000 -60 Level KA90
09:27AM 42.0500 -70.8000 52° Northeast 403 464 10,900  Descending KA90
09:28AM 42.1167 -70.6833 52° Northeast 405 466 11,000 -240 Climbing KA90
09:29AM 42.1833 -70.6000 43° Northeast 353 406 10,500 -900 Descending KA90
09:30AM 42.2667 -70.6167 352° North 284 327 9,400 -1,740 Descending KA90
09:30AM 42.3333 -70.6667 331° Northwest 264 304 7,200 -2,340 Descending KA90
09:31AM 42.3658 -70.6794 344° North 271 312 6,000 -2,160 Descending Boston Center
09:32AM 42.4253 -70.7231 332° Northwest 254 292 3,900 -1,500 Descending Boston Center
09:33AM 42.4767 -70.7728 324° Northwest 233 268 3,000 -480 Descending Boston Center
09:34AM 42.5172 -70.8419 309° West 238 274 3,000 -240 Level Boston Center
09:35AM 42.5000 -70.9333 256° West 228 262 2,600 -600 Descending KA90
09:36AM 42.4500 -70.9667 206° Southwest 192 221 1,700 -900 Descending KA90
09:37AM 42.4167 -70.9833 200° South 139 160 900 -900 Descending KA90
09:40AM 42.3630 -71.0064 198° South  Level Estimated
09:47AM 42.3630 -71.0064 48° Northeast  Level Estimated